Time;durP1;ratioP1;P1;durP2;ratioP2;P2;SDS_P1;SDS_P2;PMS_P1;PMS_P2;Temp;Humidity;BMP_temperature;BMP_pressure;BME280_temperature;BME280_humidity;BME280_pressure;Samples;Min_cycle;Max_cycle;Signal;HPM_P1;HPM_P2
2024/03/25 00:00:48;;;;;;;30.13;7.00;;;;;;;2.26;100.00;100692.38;5044191;28;20090;-66
2024/03/25 00:03:13;;;;;;;32.22;7.38;;;;;;;2.24;100.00;100694.06;5039358;28;20095;-66
2024/03/25 00:05:38;;;;;;;28.17;6.68;;;;;;;2.19;100.00;100686.88;5041965;28;20037;-66
2024/03/25 00:08:04;;;;;;;29.85;7.00;;;;;;;2.16;100.00;100684.19;5042289;28;20112;-66
2024/03/25 00:10:29;;;;;;;30.13;7.15;;;;;;;2.10;100.00;100692.66;5041903;28;20029;-66
2024/03/25 00:12:56;;;;;;;29.73;7.28;;;;;;;2.08;100.00;100691.69;5042964;28;20055;-66
2024/03/25 00:15:23;;;;;;;29.63;6.70;;;;;;;2.02;100.00;100688.88;5040999;28;20034;-67
2024/03/25 00:17:49;;;;;;;30.67;6.65;;;;;;;1.99;100.00;100694.84;5042787;28;20036;-66
2024/03/25 00:20:15;;;;;;;29.65;6.88;;;;;;;1.98;100.00;100694.81;5040740;28;20038;-66
2024/03/25 00:22:41;;;;;;;32.83;7.30;;;;;;;2.03;100.00;100699.38;5043251;28;20387;-68
2024/03/25 00:25:07;;;;;;;29.30;7.00;;;;;;;2.00;100.00;100696.66;5041495;28;20506;-70
2024/03/25 00:27:33;;;;;;;28.13;6.63;;;;;;;1.92;100.00;100685.94;5041844;28;20065;-67
2024/03/25 00:29:58;;;;;;;33.63;7.22;;;;;;;1.89;100.00;100669.28;5042758;28;20594;-66
2024/03/25 00:32:23;;;;;;;30.42;7.13;;;;;;;1.83;100.00;100674.28;5041137;28;20042;-66
2024/03/25 00:34:49;;;;;;;29.50;7.00;;;;;;;1.79;100.00;100678.50;5042495;28;20065;-66
2024/03/25 00:37:14;;;;;;;30.13;8.27;;;;;;;1.74;100.00;100678.31;5040569;28;20042;-66
2024/03/25 00:39:39;;;;;;;28.92;7.25;;;;;;;1.72;100.00;100679.97;5043088;28;20040;-66
2024/03/25 00:42:05;;;;;;;28.30;7.80;;;;;;;1.65;100.00;100679.72;5041681;28;20033;-68
2024/03/25 00:44:31;;;;;;;30.38;7.72;;;;;;;1.66;100.00;100684.06;5041659;28;20133;-66
2024/03/25 00:46:56;;;;;;;30.05;7.28;;;;;;;1.65;100.00;100682.31;5042768;28;20033;-67
2024/03/25 00:49:21;;;;;;;31.50;7.53;;;;;;;1.65;100.00;100677.09;5040578;28;20112;-69
2024/03/25 00:51:47;;;;;;;31.95;7.60;;;;;;;1.66;100.00;100682.38;5044030;28;20108;-68
2024/03/25 00:54:12;;;;;;;27.52;7.07;;;;;;;1.69;100.00;100687.69;5039331;28;20472;-66
2024/03/25 00:56:37;;;;;;;36.20;8.18;;;;;;;1.69;100.00;100679.88;5042718;28;20087;-67
2024/03/25 00:59:03;;;;;;;31.25;7.38;;;;;;;1.67;100.00;100686.72;5040369;28;20083;-69
2024/03/25 01:01:29;;;;;;;31.02;7.35;;;;;;;1.66;100.00;100686.66;5040219;28;20045;-68
2024/03/25 01:03:55;;;;;;;30.35;7.55;;;;;;;1.65;100.00;100691.00;5043187;28;20487;-66
2024/03/25 01:06:20;;;;;;;33.58;7.50;;;;;;;1.67;100.00;100697.16;5040069;28;20030;-67
2024/03/25 01:08:45;;;;;;;29.15;7.20;;;;;;;1.70;100.00;100694.69;5043454;28;20025;-66
2024/03/25 01:11:11;;;;;;;28.52;7.40;;;;;;;1.74;100.00;100696.56;5040965;28;20567;-68
2024/03/25 01:13:36;;;;;;;32.28;7.70;;;;;;;1.69;100.00;100692.91;5045176;28;20025;-67
2024/03/25 01:16:02;;;;;;;31.17;7.53;;;;;;;1.68;100.00;100696.34;5045376;28;20115;-67
2024/03/25 01:18:27;;;;;;;30.83;7.40;;;;;;;1.67;100.00;100689.34;5044586;28;20033;-67
2024/03/25 01:20:52;;;;;;;28.58;7.25;;;;;;;1.64;100.00;100691.81;5046627;28;20162;-66
2024/03/25 01:23:17;;;;;;;30.00;6.93;;;;;;;1.59;100.00;100690.78;5042272;28;20116;-67
2024/03/25 01:25:43;;;;;;;33.88;7.60;;;;;;;1.65;100.00;100696.22;5028449;28;20044;-71
2024/03/25 01:28:08;;;;;;;29.85;7.65;;;;;;;1.59;100.00;100684.66;5044315;28;20033;-70
2024/03/25 01:30:35;;;;;;;30.80;7.00;;;;;;;1.60;100.00;100704.69;5045238;28;20022;-66
2024/03/25 01:33:01;;;;;;;29.40;7.20;;;;;;;1.59;100.00;100711.63;5045357;28;20081;-67
2024/03/25 01:35:26;;;;;;;29.80;7.57;;;;;;;1.53;100.00;100713.97;5044204;28;20028;-69
2024/03/25 01:37:53;;;;;;;30.40;6.97;;;;;;;1.47;100.00;100704.22;5046822;28;20059;-67
2024/03/25 01:40:18;;;;;;;33.40;7.30;;;;;;;1.46;100.00;100694.63;5043237;28;20033;-67
2024/03/25 01:42:44;;;;;;;28.45;7.20;;;;;;;1.43;100.00;100694.50;5046236;28;20060;-68
2024/03/25 01:45:10;;;;;;;32.25;7.35;;;;;;;1.47;100.00;100691.19;5044016;28;20052;-68
2024/03/25 01:47:37;;;;;;;32.90;8.10;;;;;;;1.47;100.00;100685.06;5045055;28;20527;-67
2024/03/25 01:50:03;;;;;;;32.33;7.30;;;;;;;1.50;100.00;100690.41;5045178;28;20106;-67
2024/03/25 01:52:30;;;;;;;32.47;7.65;;;;;;;1.46;100.00;100679.00;5044297;28;20038;-67
2024/03/25 01:54:56;;;;;;;31.40;7.68;;;;;;;1.43;100.00;100689.28;5045763;28;20062;-66
2024/03/25 01:57:21;;;;;;;33.13;7.88;;;;;;;1.45;100.00;100692.84;5042889;28;20079;-66
2024/03/25 01:59:47;;;;;;;32.22;7.40;;;;;;;1.49;100.00;100680.84;5045260;28;20025;-66
2024/03/25 02:14:02;;;;;;;29.48;7.72;;;;;;;1.45;100.00;100692.84;5045017;28;20345;-67
2024/03/25 02:16:27;;;;;;;31.50;7.80;;;;;;;1.43;100.00;100693.59;5041202;28;20284;-69
2024/03/25 02:18:53;;;;;;;35.13;8.32;;;;;;;1.49;100.00;100693.88;5046089;28;20111;-68
2024/03/25 02:21:18;;;;;;;29.40;7.90;;;;;;;1.46;100.00;100686.81;5041371;28;20022;-69
2024/03/25 02:23:46;;;;;;;29.25;7.78;;;;;;;1.46;100.00;100693.75;5044354;28;20487;-67
2024/03/25 02:26:12;;;;;;;32.03;8.20;;;;;;;1.38;100.00;100693.44;5042797;28;20054;-69
2024/03/25 02:28:37;;;;;;;30.92;7.93;;;;;;;1.40;100.00;100691.78;5044842;28;20117;-68
2024/03/25 02:31:02;;;;;;;30.73;7.68;;;;;;;1.45;100.00;100691.97;5044453;28;20036;-68
2024/03/25 02:33:28;;;;;;;35.60;8.50;;;;;;;1.35;100.00;100686.38;5043436;28;20041;-69
2024/03/25 02:35:53;;;;;;;32.03;8.45;;;;;;;1.26;100.00;100674.72;5045704;28;20043;-69
2024/03/25 02:38:19;;;;;;;29.13;8.10;;;;;;;1.18;100.00;100677.91;5041484;28;20022;-69
2024/03/25 02:40:45;;;;;;;30.85;8.00;;;;;;;1.11;100.00;100675.00;5045684;28;20040;-67
2024/03/25 02:43:11;;;;;;;32.58;8.57;;;;;;;1.10;100.00;100676.72;5043111;28;20108;-74
2024/03/25 02:45:37;;;;;;;32.70;8.52;;;;;;;1.13;100.00;100669.00;5046436;28;20024;-73
2024/03/25 02:48:02;;;;;;;33.45;8.77;;;;;;;1.15;100.00;100672.59;5043541;28;20025;-72
2024/03/25 02:50:28;;;;;;;32.92;8.88;;;;;;;1.15;100.00;100666.47;5044864;28;20120;-68
2024/03/25 02:52:53;;;;;;;36.58;9.23;;;;;;;1.14;100.00;100667.31;5042923;28;20029;-73
2024/03/25 02:55:18;;;;;;;32.17;9.10;;;;;;;1.17;100.00;100664.84;5045983;28;20516;-76
2024/03/25 02:57:44;;;;;;;32.13;9.73;;;;;;;1.14;100.00;100662.13;5042922;28;20029;-68
2024/03/25 03:00:10;;;;;;;37.42;9.80;;;;;;;1.12;100.00;100671.56;5044556;28;20032;-71
2024/03/25 03:02:35;;;;;;;32.22;9.98;;;;;;;1.10;100.00;100673.22;5043775;28;20086;-75
2024/03/25 03:05:02;;;;;;;32.58;10.02;;;;;;;1.04;100.00;100659.13;5043921;28;20026;-78
2024/03/25 03:07:27;;;;;;;39.65;10.90;;;;;;;1.00;100.00;100657.22;5043945;28;20033;-71
2024/03/25 03:09:53;;;;;;;30.08;10.27;;;;;;;0.98;100.00;100661.50;5042633;28;20102;-77
2024/03/25 03:12:18;;;;;;;33.78;10.50;;;;;;;0.93;100.00;100656.91;5045927;28;20036;-77
2024/03/25 03:14:43;;;;;;;32.88;10.70;;;;;;;0.91;100.00;100655.97;5042433;28;20038;-71
2024/03/25 03:17:09;;;;;;;31.95;11.00;;;;;;;0.85;100.00;100657.50;5043906;28;20033;-67
2024/03/25 03:19:34;;;;;;;37.35;12.05;;;;;;;0.81;100.00;100655.59;5042166;28;20033;-70
2024/03/25 03:21:59;;;;;;;35.10;11.73;;;;;;;0.78;100.00;100652.00;5042508;28;20476;-67
2024/03/25 03:24:25;;;;;;;34.88;12.68;;;;;;;0.80;100.00;100652.94;5044201;28;20521;-68
2024/03/25 03:26:50;;;;;;;33.65;13.07;;;;;;;0.80;100.00;100640.81;5041221;28;20081;-69
2024/03/25 03:29:15;;;;;;;36.03;13.07;;;;;;;0.77;100.00;100642.41;5044454;28;20033;-70
2024/03/25 03:31:41;;;;;;;38.35;13.20;;;;;;;0.73;100.00;100644.00;5042140;28;20025;-71
2024/03/25 03:34:06;;;;;;;35.55;12.80;;;;;;;0.74;100.00;100637.94;5043234;28;20045;-70
2024/03/25 03:36:32;;;;;;;38.67;14.25;;;;;;;0.75;100.00;100638.84;5042779;28;20111;-70
2024/03/25 03:38:57;;;;;;;37.15;14.13;;;;;;;0.77;100.00;100647.59;5041816;28;20034;-70
2024/03/25 03:41:22;;;;;;;35.15;14.77;;;;;;;0.81;100.00;100646.91;5044229;28;20040;-69
2024/03/25 03:43:48;;;;;;;39.70;15.18;;;;;;;0.82;100.00;100643.47;5040996;28;20029;-69
2024/03/25 03:46:13;;;;;;;40.88;16.33;;;;;;;0.86;100.00;100650.59;5044091;28;20099;-69
2024/03/25 03:48:38;;;;;;;39.40;16.50;;;;;;;0.84;100.00;100654.84;5042048;28;20040;-68
2024/03/25 03:51:08;;;;;;;42.17;16.92;;;;;;;0.86;100.00;100658.41;5041164;28;20091;-69
2024/03/25 03:53:34;;;;;;;39.75;17.65;;;;;;;0.84;100.00;100653.09;5042893;28;20029;-69
2024/03/25 03:56:02;;;;;;;38.83;16.75;;;;;;;0.83;100.00;100647.84;5040620;28;20111;-68
2024/03/25 03:58:27;;;;;;;41.35;18.88;;;;;;;0.82;100.00;100653.91;5043538;28;20035;-70
2024/03/25 04:00:53;;;;;;;40.60;18.83;;;;;;;0.78;100.00;100652.00;5041236;28;20489;-70
2024/03/25 04:03:18;;;;;;;41.17;19.70;;;;;;;0.74;100.00;100645.75;5044170;28;20120;-68
2024/03/25 04:05:44;;;;;;;39.53;19.55;;;;;;;0.71;100.00;100642.16;5041211;28;20038;-69
2024/03/25 04:08:10;;;;;;;43.72;20.02;;;;;;;0.70;100.00;100643.88;5043325;28;20481;-69
2024/03/25 04:10:36;;;;;;;38.30;20.73;;;;;;;0.71;100.00;100644.75;5042347;28;20036;-69
2024/03/25 04:13:02;;;;;;;44.75;20.88;;;;;;;0.65;100.00;100641.06;5042133;28;20038;-68
2024/03/25 04:15:27;;;;;;;42.70;21.65;;;;;;;0.63;100.00;100640.13;5043759;28;20036;-69
2024/03/25 04:17:52;;;;;;;45.38;22.33;;;;;;;0.62;100.00;100642.66;5039353;28;20094;-70
2024/03/25 04:20:18;;;;;;;45.63;22.23;;;;;;;0.57;100.00;100639.88;5044368;28;20056;-68
2024/03/25 04:22:45;;;;;;;42.50;23.02;;;;;;;0.58;100.00;100635.53;5039985;28;20489;-69
2024/03/25 04:25:11;;;;;;;47.78;23.67;;;;;;;0.56;100.00;100638.09;5043063;28;20029;-69
2024/03/25 04:27:43;;;;;;;46.92;23.70;;;;;;;0.49;100.00;100630.84;5042114;28;20392;-68
2024/03/25 04:30:11;;;;;;;42.65;24.02;;;;;;;0.46;100.00;100630.72;5041898;28;20034;-74
2024/03/25 04:32:37;;;;;;;46.17;24.08;;;;;;;0.43;100.00;100631.47;5042502;28;20025;-75
2024/03/25 04:35:03;;;;;;;45.83;24.40;;;;;;;0.41;100.00;100629.63;5040898;28;20029;-71
2024/03/25 04:37:29;;;;;;;49.45;25.38;;;;;;;0.39;100.00;100639.09;5043643;28;20463;-68
2024/03/25 04:39:55;;;;;;;48.67;26.25;;;;;;;0.38;100.00;100639.91;5039473;28;20044;-67
2024/03/25 04:42:21;;;;;;;50.13;26.40;;;;;;;0.35;100.00;100638.09;5044203;28;20025;-76
2024/03/25 04:44:47;;;;;;;48.20;25.67;;;;;;;0.28;100.00;100639.53;5040943;28;20034;-78
2024/03/25 04:47:12;;;;;;;47.33;25.70;;;;;;;0.24;100.00;100644.53;5044468;28;20071;-78
2024/03/25 04:49:37;;;;;;;47.67;28.15;;;;;;;0.28;100.00;100644.72;5046368;28;20078;-69
2024/03/25 04:52:06;;;;;;;50.10;27.58;;;;;;;0.29;100.00;100645.59;5045880;28;20036;-67
2024/03/25 04:54:32;;;;;;;50.13;28.05;;;;;;;0.28;100.00;100644.72;5046263;28;20029;-67
2024/03/25 04:56:57;;;;;;;48.35;29.70;;;;;;;0.32;100.00;100649.25;5044832;28;20032;-68
2024/03/25 04:59:22;;;;;;;49.35;29.58;;;;;;;0.29;100.00;100648.22;5047583;28;20056;-67
2024/03/25 05:01:48;;;;;;;49.50;29.50;;;;;;;0.24;100.00;100648.03;5038401;28;20041;-67
2024/03/25 05:04:13;;;;;;;49.65;29.60;;;;;;;0.24;100.00;100647.16;5047103;28;20032;-67
2024/03/25 05:06:39;;;;;;;48.08;29.75;;;;;;;0.28;100.00;100656.84;5043875;28;20029;-67
2024/03/25 05:09:05;;;;;;;53.03;30.48;;;;;;;0.24;100.00;100650.63;5045345;28;20053;-67
2024/03/25 05:11:31;;;;;;;51.10;30.52;;;;;;;0.27;100.00;100653.34;5045068;28;20102;-67
2024/03/25 05:13:56;;;;;;;52.50;31.55;;;;;;;0.27;100.00;100655.94;5044239;28;20061;-69
2024/03/25 05:16:22;;;;;;;52.05;31.33;;;;;;;0.27;100.00;100658.53;5045808;28;20151;-67
2024/03/25 05:18:47;;;;;;;51.25;31.33;;;;;;;0.22;100.00;100657.47;5044175;28;20073;-70
2024/03/25 05:21:12;;;;;;;52.97;30.90;;;;;;;0.18;100.00;100652.97;5046180;28;20029;-67
2024/03/25 05:23:38;;;;;;;54.00;31.42;;;;;;;0.21;100.00;100663.50;5044944;28;20037;-68
2024/03/25 05:26:03;;;;;;;50.28;31.75;;;;;;;0.20;100.00;100658.22;5045100;28;20551;-68
2024/03/25 05:28:29;;;;;;;51.25;32.20;;;;;;;0.21;100.00;100668.69;5046341;28;20542;-68
2024/03/25 05:30:54;;;;;;;54.30;32.60;;;;;;;0.15;100.00;100664.13;5042514;28;20038;-67
2024/03/25 05:33:19;;;;;;;55.58;31.98;;;;;;;0.13;100.00;100670.06;5047269;28;20376;-68
2024/03/25 05:35:45;;;;;;;52.15;32.80;;;;;;;0.09;100.00;100665.56;5042456;28;20337;-68
2024/03/25 05:38:10;;;;;;;58.45;33.35;;;;;;;0.05;100.00;100666.25;5045966;28;20045;-69
2024/03/25 05:40:36;;;;;;;54.03;33.17;;;;;;;0.01;100.00;100667.81;5045021;28;20025;-68
2024/03/25 05:43:02;;;;;;;53.00;32.22;;;;;;;0.04;100.00;100667.94;5044354;28;20116;-67
2024/03/25 05:45:27;;;;;;;56.38;34.15;;;;;;;0.07;100.00;100656.78;5046333;28;20121;-68
2024/03/25 05:47:53;;;;;;;57.83;32.85;;;;;;;0.04;100.00;100667.94;5043417;28;20101;-69
2024/03/25 05:50:18;;;;;;;55.35;33.95;;;;;;;0.03;100.00;100655.78;5046620;28;20025;-72
2024/03/25 05:52:43;;;;;;;52.20;32.70;;;;;;;0.07;100.00;100654.19;5044086;28;20033;-68
2024/03/25 05:55:12;;;;;;;54.33;34.30;;;;;;;0.08;100.00;100653.38;5045323;28;20042;-67
2024/03/25 05:57:37;;;;;;;56.15;35.33;;;;;;;0.09;100.00;100661.25;5044439;28;20059;-71
2024/03/25 06:00:03;;;;;;;50.55;33.63;;;;;;;0.10;100.00;100655.25;5044857;28;20061;-71
2024/03/25 06:02:30;;;;;;;53.50;34.13;;;;;;;0.12;100.00;100647.50;5045454;28;20043;-77
2024/03/25 06:04:56;;;;;;;53.60;34.90;;;;;;;0.17;100.00;100648.56;5043167;28;20038;-75
2024/03/25 06:07:21;;;;;;;53.38;34.97;;;;;;;0.23;100.00;100648.84;5046680;28;20025;-72
2024/03/25 06:09:47;;;;;;;55.05;35.50;;;;;;;0.26;100.00;100646.41;5041873;28;20084;-70
2024/03/25 06:12:13;;;;;;;58.08;35.97;;;;;;;0.28;100.00;100647.34;5045656;28;20509;-71
2024/03/25 06:14:38;;;;;;;54.67;36.47;;;;;;;0.36;100.00;100646.78;5044812;28;20111;-67
2024/03/25 06:17:03;;;;;;;54.22;36.60;;;;;;;0.44;100.00;100637.59;5043012;28;20436;-67
2024/03/25 06:19:29;;;;;;;54.40;36.95;;;;;;;0.46;100.00;100636.81;5045079;28;20032;-68
2024/03/25 06:21:54;;;;;;;59.92;37.55;;;;;;;0.46;100.00;100641.13;5042678;28;20033;-67
2024/03/25 06:24:19;;;;;;;54.83;36.92;;;;;;;0.54;100.00;100631.94;5045827;28;20471;-66
2024/03/25 06:26:45;;;;;;;55.75;36.15;;;;;;;0.62;100.00;100633.13;5042762;28;20096;-66
2024/03/25 06:29:10;;;;;;;56.38;37.35;;;;;;;0.69;100.00;100634.28;5043334;28;20045;-67
2024/03/25 06:34:22;;;;;;;57.17;36.83;;;;;;;0.92;100.00;100632.63;5038553;28;20091;-66
2024/03/25 06:36:48;;;;;;;60.90;37.33;;;;;;;1.06;100.00;100629.66;5045682;28;20025;-66
2024/03/25 06:39:14;;;;;;;54.97;37.00;;;;;;;1.15;100.00;100627.41;5042856;28;20033;-67
2024/03/25 06:41:40;;;;;;;55.88;35.08;;;;;;;1.28;100.00;100634.91;5044154;28;20034;-69
2024/03/25 06:44:06;;;;;;;56.13;36.10;;;;;;;1.38;100.00;100633.50;5043888;28;20108;-69
2024/03/25 06:46:32;;;;;;;55.10;35.28;;;;;;;1.47;100.00;100635.56;5042975;28;20071;-68
2024/03/25 06:48:57;;;;;;;53.97;34.13;;;;;;;1.57;100.00;100627.28;5044798;28;20040;-67
2024/03/25 06:51:23;;;;;;;53.72;33.88;;;;;;;1.69;100.00;100638.16;5041200;28;20037;-67
2024/03/25 06:53:48;;;;;;;51.60;33.05;;;;;;;1.84;100.00;100639.56;5045128;28;20021;-67
2024/03/25 06:56:14;;;;;;;49.85;31.90;;;;;;;1.98;100.00;100643.56;5042774;28;20141;-67
2024/03/25 06:58:39;;;;;;;47.95;30.25;;;;;;;2.11;100.00;100650.09;5043934;28;20029;-68
2024/03/25 07:01:07;;;;;;;44.50;28.42;;;;;;;2.22;100.00;100640.03;5043868;28;20464;-68
2024/03/25 07:03:33;;;;;;;46.95;28.52;;;;;;;2.35;100.00;100639.63;5042605;28;20112;-68
2024/03/25 07:06:00;;;;;;;44.55;28.33;;;;;;;2.46;100.00;100631.28;5044706;28;20064;-68
2024/03/25 07:08:26;;;;;;;41.70;27.20;;;;;;;2.56;100.00;100633.34;5041687;28;20056;-68
2024/03/25 07:10:52;;;;;;;42.95;26.42;;;;;;;2.69;100.00;100640.75;5044154;28;20033;-68
2024/03/25 07:13:18;;;;;;;42.47;26.17;;;;;;;2.83;100.00;100636.00;5041903;28;20059;-68
2024/03/25 07:15:44;;;;;;;40.60;24.50;;;;;;;2.82;100.00;100626.38;5044071;28;20460;-69
2024/03/25 07:18:13;;;;;;;39.45;23.23;;;;;;;2.93;100.00;100622.41;5042747;28;20116;-68
2024/03/25 07:20:41;;;;;;;37.60;22.52;;;;;;;3.02;100.00;100640.09;5043318;28;20432;-69
2024/03/25 07:23:07;;;;;;;38.30;22.08;;;;;;;3.13;100.00;100636.09;5043180;28;20029;-68
2024/03/25 07:25:33;;;;;;;35.50;21.33;;;;;;;3.27;100.00;100640.84;5042359;28;20136;-70
2024/03/25 07:27:59;;;;;;;35.92;20.90;;;;;;;3.38;100.00;100636.84;5044124;28;20087;-68
2024/03/25 07:30:28;;;;;;;36.85;20.67;;;;;;;3.58;100.00;100639.16;5041247;28;20053;-67
2024/03/25 07:32:58;;;;;;;35.55;21.08;;;;;;;3.76;100.00;100634.47;5044691;28;20029;-67
2024/03/25 07:35:23;;;;;;;38.90;21.38;;;;;;;3.97;100.00;100630.69;5037659;28;20037;-68
2024/03/25 07:37:51;;;;;;;38.30;20.27;;;;;;;4.08;100.00;100634.50;5043362;28;20029;-67
2024/03/25 07:40:18;;;;;;;39.90;21.05;;;;;;;4.12;100.00;100635.44;5041294;28;20029;-68
2024/03/25 07:42:43;;;;;;;37.30;19.73;;;;;;;4.23;100.00;100643.59;5043638;28;20030;-69
2024/03/25 07:45:09;;;;;;;40.08;20.45;;;;;;;4.43;100.00;100642.41;5042629;28;20029;-68
2024/03/25 07:47:35;;;;;;;37.58;20.02;;;;;;;4.66;100.00;100639.47;5042462;28;20484;-69
2024/03/25 07:50:00;;;;;;;34.70;19.02;;;;;;;4.78;100.00;100639.78;5043706;28;20361;-69
2024/03/25 07:52:27;;;;;;;37.45;20.20;;;;;;;4.85;100.00;100639.09;5041045;28;20064;-67
2024/03/25 07:54:52;;;;;;;36.42;18.65;;;;;;;4.94;100.00;100641.06;5044725;28;20040;-68
2024/03/25 07:57:19;;;;;;;34.78;19.30;;;;;;;5.02;100.00;100634.28;5041328;28;20025;-73
2024/03/25 07:59:44;;;;;;;37.00;18.88;;;;;;;4.96;100.00;100636.72;5044135;28;20026;-75
2024/03/25 08:02:10;;;;;;;35.28;19.23;;;;;;;4.94;100.00;100634.94;5042426;28;20040;-73
2024/03/25 08:04:35;;;;;;;39.17;20.17;;;;;;;5.16;100.00;100631.94;5042864;28;20065;-77
2024/03/25 08:07:01;;;;;;;36.17;20.00;;;;;;;5.30;100.00;100628.75;5037605;28;20455;-76
2024/03/25 08:09:26;;;;;;;36.83;19.23;;;;;;;5.46;100.00;100624.72;5044133;28;20060;-72
2024/03/25 08:11:52;;;;;;;34.13;19.30;;;;;;;5.59;100.00;100622.41;5041023;28;20034;-72
2024/03/25 08:14:17;;;;;;;35.80;18.95;;;;;;;5.47;100.00;100623.91;5039150;28;20124;-71
2024/03/25 08:16:43;;;;;;;36.53;19.73;;;;;;;5.54;100.00;100625.78;5037926;28;20052;-71
2024/03/25 08:19:08;;;;;;;34.33;19.25;;;;;;;5.77;100.00;100626.28;5040006;28;20033;-67
2024/03/25 08:21:34;;;;;;;34.90;19.00;;;;;;;6.01;100.00;100625.91;5043699;28;20123;-68
2024/03/25 08:23:59;;;;;;;33.05;18.08;;;;;;;6.14;100.00;100631.41;5046676;28;20030;-67
2024/03/25 08:26:24;;;;;;;35.88;17.92;;;;;;;6.25;100.00;100625.50;5047072;28;20052;-70
2024/03/25 08:28:50;;;;;;;34.83;17.30;;;;;;;6.47;100.00;100625.00;5043433;28;20049;-68
2024/03/25 08:31:15;;;;;;;32.85;16.83;;;;;;;6.90;100.00;100623.97;5048360;28;20056;-68
2024/03/25 08:33:41;;;;;;;32.22;16.27;;;;;;;7.26;100.00;100624.50;5042657;28;20061;-67
2024/03/25 08:36:07;;;;;;;30.55;15.73;;;;;;;7.56;100.00;100617.88;5046644;28;20501;-68
2024/03/25 08:38:32;;;;;;;29.98;15.30;;;;;;;7.70;100.00;100608.41;5045526;28;20175;-66
2024/03/25 08:40:58;;;;;;;31.88;15.57;;;;;;;7.93;100.00;100603.44;5045495;28;20472;-65
2024/03/25 08:43:23;;;;;;;29.70;14.52;;;;;;;8.18;100.00;100604.59;5047322;28;20549;-65
2024/03/25 08:45:48;;;;;;;29.25;14.93;;;;;;;8.55;100.00;100604.09;5044609;28;20108;-66
2024/03/25 08:48:14;;;;;;;29.00;14.40;;;;;;;8.67;100.00;100596.28;5047257;28;20028;-66
2024/03/25 08:50:39;;;;;;;28.27;14.60;;;;;;;8.90;100.00;100599.09;5045298;28;20024;-68
2024/03/25 08:53:04;;;;;;;28.88;13.52;;;;;;;8.86;100.00;100599.06;5046141;28;20392;-66
2024/03/25 08:55:30;;;;;;;27.35;13.10;;;;;;;8.88;100.00;100598.22;5046318;28;20029;-66
2024/03/25 08:57:58;;;;;;;27.13;13.52;;;;;;;8.87;100.00;100596.44;5044818;28;20040;-66
2024/03/25 09:00:27;;;;;;;28.73;13.23;;;;;;;8.97;100.00;100600.03;5047367;28;20411;-66
2024/03/25 09:02:53;;;;;;;28.08;13.50;;;;;;;9.04;100.00;100593.94;5043974;28;20030;-67
2024/03/25 09:05:18;;;;;;;26.35;12.32;;;;;;;9.24;100.00;100591.41;5047829;28;20376;-67
2024/03/25 09:07:51;;;;;;;25.17;12.55;;;;;;;9.54;100.00;100599.50;5044296;28;20117;-69
2024/03/25 09:13:02;;;;;;;26.45;12.90;;;;;;;10.06;100.00;100589.13;5043500;28;20052;-69
2024/03/25 09:15:28;;;;;;;27.45;12.40;;;;;;;10.49;100.00;100575.13;5046494;28;20111;-67
2024/03/25 09:17:54;;;;;;;26.05;12.75;;;;;;;11.04;100.00;100587.44;5044073;28;20111;-68
2024/03/25 09:20:20;;;;;;;26.45;12.15;;;;;;;10.78;100.00;100579.53;5047045;28;20044;-69
2024/03/25 09:22:48;;;;;;;26.63;12.40;;;;;;;10.09;100.00;100573.28;5044076;28;20033;-66
2024/03/25 09:25:14;;;;;;;26.45;12.23;;;;;;;10.15;100.00;100568.88;5046697;28;20079;-69
2024/03/25 09:27:40;;;;;;;26.20;12.02;;;;;;;10.72;100.00;100568.97;5044156;28;20076;-68
2024/03/25 09:30:07;;;;;;;26.60;12.00;;;;;;;11.14;100.00;100565.34;5045635;28;20112;-69
2024/03/25 09:32:32;;;;;;;26.77;12.70;;;;;;;11.81;100.00;100554.50;5044997;28;20104;-67
2024/03/25 09:34:58;;;;;;;27.08;12.48;;;;;;;11.60;100.00;100542.25;5044354;28;20564;-68
2024/03/25 09:37:23;;;;;;;25.98;12.73;;;;;;;11.73;100.00;100541.31;5046755;28;20549;-69
2024/03/25 09:39:49;;;;;;;25.02;12.35;;;;;;;12.43;100.00;100543.53;5043518;28;20036;-69
2024/03/25 09:42:18;;;;;;;25.42;12.50;;;;;;;12.61;100.00;100543.41;5046405;28;20040;-68
2024/03/25 09:44:44;;;;;;;25.48;12.32;;;;;;;13.27;100.00;100543.63;5043910;28;20038;-68
2024/03/25 09:47:11;;;;;;;26.02;11.93;;;;;;;14.35;100.00;100536.84;5045348;28;20029;-69
2024/03/25 09:49:40;;;;;;;24.98;11.55;;;;;;;14.72;100.00;100531.84;5044386;28;20112;-69
2024/03/25 09:52:06;;;;;;;23.35;9.85;;;;;;;14.26;100.00;100537.88;5045048;28;20100;-69
2024/03/25 09:54:31;;;;;;;24.95;9.90;;;;;;;13.41;100.00;100528.41;5045097;28;20468;-69
2024/03/25 09:56:58;;;;;;;24.42;10.07;;;;;;;13.31;100.00;100524.09;5043647;28;20021;-69
2024/03/25 09:59:23;;;;;;;23.23;9.40;;;;;;;13.89;100.00;100526.03;5046391;28;20051;-68
2024/03/25 10:01:49;;;;;;;23.17;9.65;;;;;;;14.37;100.00;100530.63;5042951;28;20041;-69
2024/03/25 10:04:14;;;;;;;23.75;10.20;;;;;;;14.98;100.00;100525.13;5045719;28;20102;-69
2024/03/25 10:06:40;;;;;;;21.73;8.13;;;;;;;15.62;100.00;100517.63;5043925;28;20047;-66
2024/03/25 10:09:06;;;;;;;22.23;8.20;;;;;;;15.46;100.00;100524.19;5043206;28;20132;-69
2024/03/25 10:11:34;;;;;;;22.48;9.25;;;;;;;15.92;100.00;100522.38;5043565;28;20108;-69
2024/03/25 10:14:01;;;;;;;21.65;9.20;;;;;;;14.50;100.00;100512.66;5043731;28;20041;-68
2024/03/25 10:16:26;;;;;;;23.00;8.93;;;;;;;14.25;100.00;100499.75;5045388;28;20472;-69
2024/03/25 10:18:51;;;;;;;22.77;9.32;;;;;;;16.16;100.00;100500.47;5042768;28;20029;-68
2024/03/25 10:21:19;;;;;;;21.98;8.50;;;;;;;16.67;100.00;100499.19;5046303;28;20475;-68
2024/03/25 10:23:45;;;;;;;21.90;8.07;;;;;;;16.44;100.00;100505.09;5042819;28;20033;-69
2024/03/25 10:26:25;;;;;;;21.65;7.90;;;;;;;17.42;100.00;100508.72;5044555;28;20050;-69
2024/03/25 10:28:58;;;;;;;20.65;6.88;;;;;;;16.73;100.00;100499.00;5037414;28;20022;-67
2024/03/25 10:31:24;;;;;;;20.27;6.10;;;;;;;16.16;100.00;100494.22;5045977;28;20070;-67
2024/03/25 10:33:49;;;;;;;19.75;5.65;;;;;;;16.43;100.00;100494.47;5042250;28;20432;-66
2024/03/25 10:36:15;;;;;;;20.20;6.07;;;;;;;15.38;100.00;100494.16;5045164;28;20036;-66
2024/03/25 10:38:40;;;;;;;19.73;6.45;;;;;;;14.85;100.00;100494.34;5043647;28;20032;-70
2024/03/25 10:41:06;;;;;;;20.52;6.63;;;;;;;16.59;100.00;100486.94;5043917;28;20028;-67
2024/03/25 10:43:32;;;;;;;20.45;6.60;;;;;;;16.60;100.00;100483.34;5026380;28;20504;-66
2024/03/25 10:45:59;;;;;;;20.67;6.47;;;;;;;17.16;100.00;100478.28;5041649;28;20033;-66
2024/03/25 10:48:37;;;;;;;19.08;5.72;;;;;;;18.17;100.00;100480.59;5045418;28;20033;-66
2024/03/25 10:51:06;;;;;;;17.70;5.22;;;;;;;17.52;98.08;100472.78;5043136;28;20029;-66
2024/03/25 10:53:35;;;;;;;18.83;5.22;;;;;;;18.19;89.02;100476.94;5044224;28;20468;-66
2024/03/25 10:56:01;;;;;;;19.08;5.70;;;;;;;17.57;83.63;100467.28;5043331;28;20036;-68
2024/03/25 10:58:28;;;;;;;17.17;5.03;;;;;;;18.50;91.42;100469.69;5044690;28;20028;-68
2024/03/25 11:00:56;;;;;;;18.38;4.82;;;;;;;20.17;83.06;100459.81;5040454;28;20492;-67
2024/03/25 11:03:23;;;;;;;18.20;4.78;;;;;;;18.81;74.49;100459.66;5045479;28;20033;-66
2024/03/25 11:05:49;;;;;;;18.58;5.20;;;;;;;17.11;99.77;100450.84;5036116;28;20053;-66
2024/03/25 11:08:16;;;;;;;19.27;5.22;;;;;;;18.37;100.00;100454.03;5042315;28;20037;-75
2024/03/25 11:10:41;;;;;;;18.55;5.20;;;;;;;19.58;75.32;100450.53;5046978;28;20492;-66
2024/03/25 11:13:19;;;;;;;19.02;5.45;;;;;;;21.44;78.26;100445.34;5045148;28;20548;-67
2024/03/25 11:15:47;;;;;;;18.45;5.20;;;;;;;21.61;57.89;100441.88;5039504;28;20048;-67
2024/03/25 11:18:17;;;;;;;17.08;4.82;;;;;;;19.78;67.20;100441.75;5044697;28;20464;-67
2024/03/25 11:20:43;;;;;;;19.40;5.43;;;;;;;18.05;80.20;100453.31;5042025;28;20025;-67
2024/03/25 11:23:10;;;;;;;18.50;5.10;;;;;;;16.92;95.07;100447.84;5045212;28;20036;-68